sensor_id;sensor_type;location;lat;lon;timestamp;P1;durP1;ratioP1;P2;durP2;ratioP2
17650;SDS011;26663;59.302;18.082;2023-02-15T00:00:22;5.77;;;4.60;;
17650;SDS011;26663;59.302;18.082;2023-02-15T00:03:28;4.67;;;4.33;;
17650;SDS011;26663;59.302;18.082;2023-02-15T00:06:34;8.80;;;4.90;;
17650;SDS011;26663;59.302;18.082;2023-02-15T00:09:39;4.67;;;4.30;;
17650;SDS011;26663;59.302;18.082;2023-02-15T00:12:44;5.27;;;4.60;;
17650;SDS011;26663;59.302;18.082;2023-02-15T00:15:50;6.00;;;4.37;;
17650;SDS011;26663;59.302;18.082;2023-02-15T00:18:55;9.30;;;4.80;;
17650;SDS011;26663;59.302;18.082;2023-02-15T00:22:01;4.93;;;4.03;;
17650;SDS011;26663;59.302;18.082;2023-02-15T00:25:07;6.73;;;4.20;;
17650;SDS011;26663;59.302;18.082;2023-02-15T00:28:13;8.57;;;4.50;;
17650;SDS011;26663;59.302;18.082;2023-02-15T00:31:18;5.13;;;4.23;;
17650;SDS011;26663;59.302;18.082;2023-02-15T00:34:25;5.13;;;4.20;;
17650;SDS011;26663;59.302;18.082;2023-02-15T00:37:33;5.33;;;3.97;;
17650;SDS011;26663;59.302;18.082;2023-02-15T00:40:38;9.73;;;4.40;;
17650;SDS011;26663;59.302;18.082;2023-02-15T00:43:43;9.10;;;4.20;;
17650;SDS011;26663;59.302;18.082;2023-02-15T00:46:48;5.27;;;3.97;;
17650;SDS011;26663;59.302;18.082;2023-02-15T00:49:55;7.07;;;4.40;;
17650;SDS011;26663;59.302;18.082;2023-02-15T00:53:02;5.97;;;4.10;;
17650;SDS011;26663;59.302;18.082;2023-02-15T00:56:10;5.53;;;4.30;;
17650;SDS011;26663;59.302;18.082;2023-02-15T00:59:15;4.90;;;4.13;;
17650;SDS011;26663;59.302;18.082;2023-02-15T01:02:22;5.30;;;4.13;;
17650;SDS011;26663;59.302;18.082;2023-02-15T01:05:28;5.03;;;4.00;;
17650;SDS011;26663;59.302;18.082;2023-02-15T01:08:34;5.90;;;4.13;;
17650;SDS011;26663;59.302;18.082;2023-02-15T01:11:39;4.83;;;4.00;;
17650;SDS011;26663;59.302;18.082;2023-02-15T01:14:45;5.10;;;4.10;;
17650;SDS011;26663;59.302;18.082;2023-02-15T01:17:50;8.10;;;4.20;;
17650;SDS011;26663;59.302;18.082;2023-02-15T01:20:56;7.83;;;4.30;;
17650;SDS011;26663;59.302;18.082;2023-02-15T01:24:03;7.93;;;4.17;;
17650;SDS011;26663;59.302;18.082;2023-02-15T01:27:10;5.90;;;4.47;;
17650;SDS011;26663;59.302;18.082;2023-02-15T01:30:15;6.33;;;4.43;;
17650;SDS011;26663;59.302;18.082;2023-02-15T01:33:21;4.67;;;4.23;;
17650;SDS011;26663;59.302;18.082;2023-02-15T01:36:26;7.37;;;4.33;;
17650;SDS011;26663;59.302;18.082;2023-02-15T01:39:34;4.37;;;4.07;;
17650;SDS011;26663;59.302;18.082;2023-02-15T01:42:42;6.63;;;3.93;;
17650;SDS011;26663;59.302;18.082;2023-02-15T01:45:47;7.20;;;4.17;;
17650;SDS011;26663;59.302;18.082;2023-02-15T01:48:56;4.63;;;4.33;;
17650;SDS011;26663;59.302;18.082;2023-02-15T01:52:06;4.67;;;4.13;;
17650;SDS011;26663;59.302;18.082;2023-02-15T01:55:13;4.83;;;4.20;;
17650;SDS011;26663;59.302;18.082;2023-02-15T01:58:18;4.20;;;4.00;;
17650;SDS011;26663;59.302;18.082;2023-02-15T02:01:24;6.23;;;4.27;;
17650;SDS011;26663;59.302;18.082;2023-02-15T02:04:33;4.70;;;4.17;;
17650;SDS011;26663;59.302;18.082;2023-02-15T02:07:42;5.20;;;4.70;;
17650;SDS011;26663;59.302;18.082;2023-02-15T02:10:50;6.90;;;4.30;;
17650;SDS011;26663;59.302;18.082;2023-02-15T02:13:55;7.80;;;4.30;;
17650;SDS011;26663;59.302;18.082;2023-02-15T02:17:02;5.90;;;4.63;;
17650;SDS011;26663;59.302;18.082;2023-02-15T02:20:15;6.33;;;4.43;;
17650;SDS011;26663;59.302;18.082;2023-02-15T02:23:32;5.63;;;4.27;;
17650;SDS011;26663;59.302;18.082;2023-02-15T02:27:07;4.33;;;3.93;;
17650;SDS011;26663;59.302;18.082;2023-02-15T02:30:28;4.87;;;4.40;;
17650;SDS011;26663;59.302;18.082;2023-02-15T02:33:49;7.67;;;4.53;;
17650;SDS011;26663;59.302;18.082;2023-02-15T02:36:59;4.93;;;4.40;;
17650;SDS011;26663;59.302;18.082;2023-02-15T02:40:10;7.17;;;5.20;;
17650;SDS011;26663;59.302;18.082;2023-02-15T02:43:20;5.03;;;4.67;;
17650;SDS011;26663;59.302;18.082;2023-02-15T02:46:30;6.83;;;4.67;;
17650;SDS011;26663;59.302;18.082;2023-02-15T02:49:40;10.80;;;4.93;;
17650;SDS011;26663;59.302;18.082;2023-02-15T02:52:47;5.17;;;4.50;;
17650;SDS011;26663;59.302;18.082;2023-02-15T02:55:53;9.67;;;4.50;;
17650;SDS011;26663;59.302;18.082;2023-02-15T02:59:02;5.97;;;4.90;;
17650;SDS011;26663;59.302;18.082;2023-02-15T03:02:11;5.30;;;4.80;;
17650;SDS011;26663;59.302;18.082;2023-02-15T03:05:22;4.80;;;4.40;;
17650;SDS011;26663;59.302;18.082;2023-02-15T03:08:32;4.90;;;4.50;;
17650;SDS011;26663;59.302;18.082;2023-02-15T03:11:41;5.83;;;4.63;;
17650;SDS011;26663;59.302;18.082;2023-02-15T03:14:49;9.93;;;4.87;;
17650;SDS011;26663;59.302;18.082;2023-02-15T03:17:57;5.77;;;4.93;;
17650;SDS011;26663;59.302;18.082;2023-02-15T03:21:07;5.13;;;4.53;;
17650;SDS011;26663;59.302;18.082;2023-02-15T03:24:25;7.87;;;4.73;;
17650;SDS011;26663;59.302;18.082;2023-02-15T03:27:33;7.00;;;4.63;;
17650;SDS011;26663;59.302;18.082;2023-02-15T03:30:43;6.70;;;5.33;;
17650;SDS011;26663;59.302;18.082;2023-02-15T03:33:54;7.73;;;5.60;;
17650;SDS011;26663;59.302;18.082;2023-02-15T03:37:05;10.43;;;4.73;;
17650;SDS011;26663;59.302;18.082;2023-02-15T03:40:18;9.47;;;5.47;;
17650;SDS011;26663;59.302;18.082;2023-02-15T03:43:44;9.17;;;5.77;;
17650;SDS011;26663;59.302;18.082;2023-02-15T03:46:52;10.17;;;6.33;;
17650;SDS011;26663;59.302;18.082;2023-02-15T03:50:02;9.97;;;5.73;;
17650;SDS011;26663;59.302;18.082;2023-02-15T03:53:31;7.50;;;5.37;;
17650;SDS011;26663;59.302;18.082;2023-02-15T03:56:39;9.90;;;6.07;;
17650;SDS011;26663;59.302;18.082;2023-02-15T04:00:09;7.53;;;5.77;;
17650;SDS011;26663;59.302;18.082;2023-02-15T04:03:36;12.03;;;6.90;;
17650;SDS011;26663;59.302;18.082;2023-02-15T04:06:43;10.90;;;6.33;;
17650;SDS011;26663;59.302;18.082;2023-02-15T04:09:50;10.53;;;6.33;;
17650;SDS011;26663;59.302;18.082;2023-02-15T04:13:13;10.40;;;5.97;;
17650;SDS011;26663;59.302;18.082;2023-02-15T04:16:18;11.97;;;6.47;;
17650;SDS011;26663;59.302;18.082;2023-02-15T04:19:22;10.53;;;6.83;;
17650;SDS011;26663;59.302;18.082;2023-02-15T04:22:44;8.17;;;6.57;;
17650;SDS011;26663;59.302;18.082;2023-02-15T04:26:10;11.90;;;6.63;;
17650;SDS011;26663;59.302;18.082;2023-02-15T04:29:15;11.87;;;7.10;;
17650;SDS011;26663;59.302;18.082;2023-02-15T04:32:22;9.23;;;6.20;;
17650;SDS011;26663;59.302;18.082;2023-02-15T04:35:27;10.73;;;6.80;;
17650;SDS011;26663;59.302;18.082;2023-02-15T04:38:34;12.77;;;7.00;;
17650;SDS011;26663;59.302;18.082;2023-02-15T04:41:40;10.33;;;7.17;;
17650;SDS011;26663;59.302;18.082;2023-02-15T04:44:46;10.93;;;7.37;;
17650;SDS011;26663;59.302;18.082;2023-02-15T04:47:51;12.67;;;7.07;;
17650;SDS011;26663;59.302;18.082;2023-02-15T04:50:56;16.20;;;7.47;;
17650;SDS011;26663;59.302;18.082;2023-02-15T04:54:02;12.73;;;7.40;;
17650;SDS011;26663;59.302;18.082;2023-02-15T04:57:08;14.83;;;8.07;;
17650;SDS011;26663;59.302;18.082;2023-02-15T05:00:14;9.53;;;7.23;;
17650;SDS011;26663;59.302;18.082;2023-02-15T05:03:19;13.73;;;7.63;;
17650;SDS011;26663;59.302;18.082;2023-02-15T05:06:24;12.20;;;7.63;;
17650;SDS011;26663;59.302;18.082;2023-02-15T05:09:30;13.20;;;8.03;;
17650;SDS011;26663;59.302;18.082;2023-02-15T05:12:36;15.87;;;7.83;;
17650;SDS011;26663;59.302;18.082;2023-02-15T05:15:45;13.57;;;7.73;;
17650;SDS011;26663;59.302;18.082;2023-02-15T05:18:51;15.53;;;7.93;;
17650;SDS011;26663;59.302;18.082;2023-02-15T05:21:56;13.37;;;8.20;;
17650;SDS011;26663;59.302;18.082;2023-02-15T05:25:02;13.77;;;7.97;;
17650;SDS011;26663;59.302;18.082;2023-02-15T05:28:47;10.70;;;8.10;;
17650;SDS011;26663;59.302;18.082;2023-02-15T05:31:53;13.73;;;8.00;;
17650;SDS011;26663;59.302;18.082;2023-02-15T05:34:58;16.67;;;8.60;;
17650;SDS011;26663;59.302;18.082;2023-02-15T05:38:03;12.73;;;8.50;;
17650;SDS011;26663;59.302;18.082;2023-02-15T05:41:09;18.50;;;8.93;;
17650;SDS011;26663;59.302;18.082;2023-02-15T05:44:16;15.63;;;8.47;;
17650;SDS011;26663;59.302;18.082;2023-02-15T05:47:22;13.17;;;8.50;;
17650;SDS011;26663;59.302;18.082;2023-02-15T05:50:27;15.13;;;8.63;;
17650;SDS011;26663;59.302;18.082;2023-02-15T05:53:35;13.67;;;8.63;;
17650;SDS011;26663;59.302;18.082;2023-02-15T05:56:41;14.60;;;8.77;;
17650;SDS011;26663;59.302;18.082;2023-02-15T05:59:47;17.13;;;8.43;;
17650;SDS011;26663;59.302;18.082;2023-02-15T06:02:53;14.23;;;8.07;;
17650;SDS011;26663;59.302;18.082;2023-02-15T06:05:58;14.67;;;8.43;;
17650;SDS011;26663;59.302;18.082;2023-02-15T06:09:03;18.07;;;8.73;;
17650;SDS011;26663;59.302;18.082;2023-02-15T06:12:11;18.27;;;8.80;;
17650;SDS011;26663;59.302;18.082;2023-02-15T06:15:17;17.50;;;8.90;;
17650;SDS011;26663;59.302;18.082;2023-02-15T06:18:22;15.90;;;8.87;;
17650;SDS011;26663;59.302;18.082;2023-02-15T06:21:28;16.50;;;9.00;;
17650;SDS011;26663;59.302;18.082;2023-02-15T06:24:33;19.67;;;9.20;;
17650;SDS011;26663;59.302;18.082;2023-02-15T06:27:40;16.40;;;9.17;;
17650;SDS011;26663;59.302;18.082;2023-02-15T06:30:47;17.30;;;9.03;;
17650;SDS011;26663;59.302;18.082;2023-02-15T06:33:52;17.30;;;9.17;;
17650;SDS011;26663;59.302;18.082;2023-02-15T06:37:03;15.97;;;9.17;;
17650;SDS011;26663;59.302;18.082;2023-02-15T06:40:10;17.20;;;9.67;;
17650;SDS011;26663;59.302;18.082;2023-02-15T06:43:16;16.73;;;8.73;;
17650;SDS011;26663;59.302;18.082;2023-02-15T06:46:22;18.87;;;9.50;;
17650;SDS011;26663;59.302;18.082;2023-02-15T06:49:28;16.50;;;9.03;;
17650;SDS011;26663;59.302;18.082;2023-02-15T06:52:33;15.83;;;9.10;;
17650;SDS011;26663;59.302;18.082;2023-02-15T06:55:38;18.90;;;9.07;;
17650;SDS011;26663;59.302;18.082;2023-02-15T06:58:44;15.47;;;9.40;;
17650;SDS011;26663;59.302;18.082;2023-02-15T07:01:53;16.63;;;9.07;;
17650;SDS011;26663;59.302;18.082;2023-02-15T07:04:58;14.97;;;8.67;;
17650;SDS011;26663;59.302;18.082;2023-02-15T07:08:03;14.57;;;8.30;;
17650;SDS011;26663;59.302;18.082;2023-02-15T07:11:09;15.07;;;8.43;;
17650;SDS011;26663;59.302;18.082;2023-02-15T07:14:32;15.27;;;8.30;;
17650;SDS011;26663;59.302;18.082;2023-02-15T07:17:38;17.30;;;8.43;;
17650;SDS011;26663;59.302;18.082;2023-02-15T07:20:44;11.77;;;8.10;;
17650;SDS011;26663;59.302;18.082;2023-02-15T07:23:49;14.80;;;8.20;;
17650;SDS011;26663;59.302;18.082;2023-02-15T07:26:54;17.17;;;8.37;;
17650;SDS011;26663;59.302;18.082;2023-02-15T07:30:00;16.00;;;8.47;;
17650;SDS011;26663;59.302;18.082;2023-02-15T07:33:07;16.50;;;7.73;;
17650;SDS011;26663;59.302;18.082;2023-02-15T07:36:27;13.03;;;8.20;;
17650;SDS011;26663;59.302;18.082;2023-02-15T07:39:32;16.10;;;7.83;;
17650;SDS011;26663;59.302;18.082;2023-02-15T07:42:38;15.23;;;8.33;;
17650;SDS011;26663;59.302;18.082;2023-02-15T07:45:43;13.33;;;7.80;;
17650;SDS011;26663;59.302;18.082;2023-02-15T07:48:50;12.53;;;7.43;;
17650;SDS011;26663;59.302;18.082;2023-02-15T07:51:55;13.70;;;8.10;;
17650;SDS011;26663;59.302;18.082;2023-02-15T07:55:00;13.27;;;7.83;;
17650;SDS011;26663;59.302;18.082;2023-02-15T07:58:08;12.93;;;7.03;;
17650;SDS011;26663;59.302;18.082;2023-02-15T08:01:14;11.27;;;7.67;;
17650;SDS011;26663;59.302;18.082;2023-02-15T08:04:20;13.23;;;8.17;;
17650;SDS011;26663;59.302;18.082;2023-02-15T08:07:25;14.17;;;7.90;;
17650;SDS011;26663;59.302;18.082;2023-02-15T08:10:30;15.43;;;7.60;;
17650;SDS011;26663;59.302;18.082;2023-02-15T08:14:06;11.53;;;7.33;;
17650;SDS011;26663;59.302;18.082;2023-02-15T08:17:12;12.23;;;7.80;;
17650;SDS011;26663;59.302;18.082;2023-02-15T08:20:18;13.57;;;6.93;;
17650;SDS011;26663;59.302;18.082;2023-02-15T08:23:23;9.53;;;6.80;;
17650;SDS011;26663;59.302;18.082;2023-02-15T08:26:29;9.30;;;6.40;;
17650;SDS011;26663;59.302;18.082;2023-02-15T08:29:35;8.47;;;6.73;;
17650;SDS011;26663;59.302;18.082;2023-02-15T08:32:41;9.77;;;7.23;;
17650;SDS011;26663;59.302;18.082;2023-02-15T08:35:48;9.53;;;6.17;;
17650;SDS011;26663;59.302;18.082;2023-02-15T08:38:55;11.37;;;7.17;;
17650;SDS011;26663;59.302;18.082;2023-02-15T08:42:02;10.23;;;6.50;;
17650;SDS011;26663;59.302;18.082;2023-02-15T08:45:10;11.23;;;6.50;;
17650;SDS011;26663;59.302;18.082;2023-02-15T08:48:15;11.00;;;6.13;;
17650;SDS011;26663;59.302;18.082;2023-02-15T08:51:22;9.53;;;7.13;;
17650;SDS011;26663;59.302;18.082;2023-02-15T08:54:28;14.20;;;7.33;;
17650;SDS011;26663;59.302;18.082;2023-02-15T08:57:34;10.40;;;6.40;;
17650;SDS011;26663;59.302;18.082;2023-02-15T09:00:40;8.40;;;6.23;;
17650;SDS011;26663;59.302;18.082;2023-02-15T09:03:49;7.17;;;5.90;;
17650;SDS011;26663;59.302;18.082;2023-02-15T09:06:58;9.20;;;6.47;;
17650;SDS011;26663;59.302;18.082;2023-02-15T09:10:03;8.50;;;6.00;;
17650;SDS011;26663;59.302;18.082;2023-02-15T09:13:10;10.90;;;6.43;;
17650;SDS011;26663;59.302;18.082;2023-02-15T09:16:15;7.87;;;6.10;;
17650;SDS011;26663;59.302;18.082;2023-02-15T09:19:21;9.47;;;6.03;;
17650;SDS011;26663;59.302;18.082;2023-02-15T09:22:29;9.27;;;6.27;;
17650;SDS011;26663;59.302;18.082;2023-02-15T09:25:34;10.43;;;6.80;;
17650;SDS011;26663;59.302;18.082;2023-02-15T09:28:39;11.33;;;5.93;;
17650;SDS011;26663;59.302;18.082;2023-02-15T09:31:45;12.77;;;5.90;;
17650;SDS011;26663;59.302;18.082;2023-02-15T09:34:51;10.03;;;6.27;;
17650;SDS011;26663;59.302;18.082;2023-02-15T09:37:58;8.60;;;6.60;;
17650;SDS011;26663;59.302;18.082;2023-02-15T09:41:08;7.73;;;5.87;;
17650;SDS011;26663;59.302;18.082;2023-02-15T09:44:45;8.50;;;6.10;;
17650;SDS011;26663;59.302;18.082;2023-02-15T09:48:11;6.77;;;5.43;;
17650;SDS011;26663;59.302;18.082;2023-02-15T09:55:07;8.63;;;5.43;;
17650;SDS011;26663;59.302;18.082;2023-02-15T09:58:24;10.40;;;5.53;;
17650;SDS011;26663;59.302;18.082;2023-02-15T10:01:36;5.67;;;5.27;;
17650;SDS011;26663;59.302;18.082;2023-02-15T10:04:51;6.17;;;5.57;;
17650;SDS011;26663;59.302;18.082;2023-02-15T10:11:36;7.10;;;5.23;;
17650;SDS011;26663;59.302;18.082;2023-02-15T10:15:03;5.23;;;4.70;;
17650;SDS011;26663;59.302;18.082;2023-02-15T10:18:48;5.53;;;5.03;;
17650;SDS011;26663;59.302;18.082;2023-02-15T10:22:02;5.13;;;4.60;;
17650;SDS011;26663;59.302;18.082;2023-02-15T10:25:15;6.60;;;5.23;;
17650;SDS011;26663;59.302;18.082;2023-02-15T10:28:30;6.03;;;5.10;;
17650;SDS011;26663;59.302;18.082;2023-02-15T10:31:46;7.57;;;5.20;;
17650;SDS011;26663;59.302;18.082;2023-02-15T10:34:54;6.70;;;5.17;;
17650;SDS011;26663;59.302;18.082;2023-02-15T10:38:06;7.27;;;5.27;;
17650;SDS011;26663;59.302;18.082;2023-02-15T10:41:25;7.60;;;5.27;;
17650;SDS011;26663;59.302;18.082;2023-02-15T10:44:39;6.77;;;5.67;;
17650;SDS011;26663;59.302;18.082;2023-02-15T10:48:01;7.37;;;5.80;;
17650;SDS011;26663;59.302;18.082;2023-02-15T10:51:40;10.97;;;5.80;;
17650;SDS011;26663;59.302;18.082;2023-02-15T10:54:52;11.23;;;6.00;;
17650;SDS011;26663;59.302;18.082;2023-02-15T10:58:07;12.80;;;5.80;;
17650;SDS011;26663;59.302;18.082;2023-02-15T11:01:18;8.70;;;5.90;;
17650;SDS011;26663;59.302;18.082;2023-02-15T11:04:35;8.27;;;5.67;;
17650;SDS011;26663;59.302;18.082;2023-02-15T11:07:53;9.17;;;5.97;;
17650;SDS011;26663;59.302;18.082;2023-02-15T11:11:00;11.63;;;6.53;;
17650;SDS011;26663;59.302;18.082;2023-02-15T11:14:10;11.90;;;6.60;;
17650;SDS011;26663;59.302;18.082;2023-02-15T11:17:21;9.97;;;5.90;;
17650;SDS011;26663;59.302;18.082;2023-02-15T11:20:28;12.83;;;6.53;;
17650;SDS011;26663;59.302;18.082;2023-02-15T11:23:39;8.37;;;5.80;;
17650;SDS011;26663;59.302;18.082;2023-02-15T11:26:47;9.70;;;6.17;;
17650;SDS011;26663;59.302;18.082;2023-02-15T11:29:57;10.27;;;6.33;;
17650;SDS011;26663;59.302;18.082;2023-02-15T11:33:05;11.63;;;6.07;;
17650;SDS011;26663;59.302;18.082;2023-02-15T11:36:21;12.33;;;6.00;;
17650;SDS011;26663;59.302;18.082;2023-02-15T11:39:28;9.20;;;6.10;;
17650;SDS011;26663;59.302;18.082;2023-02-15T11:42:34;12.83;;;7.17;;
17650;SDS011;26663;59.302;18.082;2023-02-15T11:45:40;12.47;;;6.83;;
17650;SDS011;26663;59.302;18.082;2023-02-15T11:48:48;10.97;;;6.63;;
17650;SDS011;26663;59.302;18.082;2023-02-15T11:51:53;14.10;;;6.93;;
17650;SDS011;26663;59.302;18.082;2023-02-15T11:54:59;13.90;;;7.27;;
17650;SDS011;26663;59.302;18.082;2023-02-15T11:58:09;14.90;;;7.30;;
17650;SDS011;26663;59.302;18.082;2023-02-15T12:01:21;14.73;;;7.30;;
17650;SDS011;26663;59.302;18.082;2023-02-15T12:04:31;18.70;;;7.63;;
17650;SDS011;26663;59.302;18.082;2023-02-15T12:07:40;11.73;;;6.43;;
17650;SDS011;26663;59.302;18.082;2023-02-15T12:10:53;11.27;;;6.80;;
17650;SDS011;26663;59.302;18.082;2023-02-15T12:14:03;12.43;;;6.90;;
17650;SDS011;26663;59.302;18.082;2023-02-15T12:17:11;10.33;;;6.80;;
17650;SDS011;26663;59.302;18.082;2023-02-15T12:20:24;14.77;;;6.67;;
17650;SDS011;26663;59.302;18.082;2023-02-15T12:23:32;14.13;;;7.83;;
17650;SDS011;26663;59.302;18.082;2023-02-15T12:26:39;10.93;;;7.37;;
17650;SDS011;26663;59.302;18.082;2023-02-15T12:29:46;11.53;;;6.73;;
17650;SDS011;26663;59.302;18.082;2023-02-15T12:32:53;13.30;;;7.17;;
17650;SDS011;26663;59.302;18.082;2023-02-15T12:36:03;10.17;;;6.40;;
17650;SDS011;26663;59.302;18.082;2023-02-15T12:39:17;15.70;;;7.07;;
17650;SDS011;26663;59.302;18.082;2023-02-15T12:42:25;11.40;;;6.67;;
17650;SDS011;26663;59.302;18.082;2023-02-15T12:45:32;12.97;;;7.53;;
17650;SDS011;26663;59.302;18.082;2023-02-15T12:48:38;11.93;;;7.10;;
17650;SDS011;26663;59.302;18.082;2023-02-15T12:51:46;14.97;;;7.10;;
17650;SDS011;26663;59.302;18.082;2023-02-15T12:54:52;11.23;;;6.70;;
17650;SDS011;26663;59.302;18.082;2023-02-15T12:58:07;9.00;;;6.87;;
17650;SDS011;26663;59.302;18.082;2023-02-15T13:01:18;11.93;;;6.40;;
17650;SDS011;26663;59.302;18.082;2023-02-15T13:04:25;12.97;;;6.93;;
17650;SDS011;26663;59.302;18.082;2023-02-15T13:07:32;14.10;;;7.20;;
17650;SDS011;26663;59.302;18.082;2023-02-15T13:10:40;16.17;;;7.20;;
17650;SDS011;26663;59.302;18.082;2023-02-15T13:13:49;14.23;;;7.57;;
17650;SDS011;26663;59.302;18.082;2023-02-15T13:16:56;13.87;;;7.70;;
17650;SDS011;26663;59.302;18.082;2023-02-15T13:20:02;11.00;;;7.07;;
17650;SDS011;26663;59.302;18.082;2023-02-15T13:23:17;16.07;;;7.77;;
17650;SDS011;26663;59.302;18.082;2023-02-15T13:26:30;18.93;;;7.93;;
17650;SDS011;26663;59.302;18.082;2023-02-15T13:29:36;13.27;;;7.57;;
17650;SDS011;26663;59.302;18.082;2023-02-15T13:32:42;13.67;;;8.10;;
17650;SDS011;26663;59.302;18.082;2023-02-15T13:35:49;11.90;;;7.03;;
17650;SDS011;26663;59.302;18.082;2023-02-15T13:39:01;14.07;;;7.73;;
17650;SDS011;26663;59.302;18.082;2023-02-15T13:42:15;10.30;;;6.53;;
17650;SDS011;26663;59.302;18.082;2023-02-15T13:45:30;12.73;;;6.73;;
17650;SDS011;26663;59.302;18.082;2023-02-15T13:48:42;14.13;;;7.07;;
17650;SDS011;26663;59.302;18.082;2023-02-15T13:51:54;15.90;;;6.73;;
17650;SDS011;26663;59.302;18.082;2023-02-15T13:55:09;16.60;;;7.57;;
17650;SDS011;26663;59.302;18.082;2023-02-15T13:58:41;12.53;;;6.80;;
17650;SDS011;26663;59.302;18.082;2023-02-15T14:01:57;12.57;;;6.93;;
17650;SDS011;26663;59.302;18.082;2023-02-15T14:05:13;14.77;;;7.40;;
17650;SDS011;26663;59.302;18.082;2023-02-15T14:08:42;12.63;;;6.30;;
17650;SDS011;26663;59.302;18.082;2023-02-15T14:11:57;14.37;;;6.80;;
17650;SDS011;26663;59.302;18.082;2023-02-15T14:15:18;10.27;;;6.40;;
17650;SDS011;26663;59.302;18.082;2023-02-15T14:18:34;12.03;;;6.87;;
17650;SDS011;26663;59.302;18.082;2023-02-15T14:21:44;10.83;;;6.70;;
17650;SDS011;26663;59.302;18.082;2023-02-15T14:24:56;12.60;;;7.10;;
17650;SDS011;26663;59.302;18.082;2023-02-15T14:28:13;10.77;;;7.00;;
17650;SDS011;26663;59.302;18.082;2023-02-15T14:31:22;11.97;;;6.37;;
17650;SDS011;26663;59.302;18.082;2023-02-15T14:34:35;10.90;;;6.17;;
17650;SDS011;26663;59.302;18.082;2023-02-15T14:37:46;10.60;;;6.90;;
17650;SDS011;26663;59.302;18.082;2023-02-15T14:40:56;14.37;;;6.23;;
17650;SDS011;26663;59.302;18.082;2023-02-15T14:44:11;11.20;;;6.73;;
17650;SDS011;26663;59.302;18.082;2023-02-15T14:47:21;9.47;;;6.10;;
17650;SDS011;26663;59.302;18.082;2023-02-15T14:53:52;12.80;;;6.27;;
17650;SDS011;26663;59.302;18.082;2023-02-15T15:00:32;10.33;;;5.87;;
17650;SDS011;26663;59.302;18.082;2023-02-15T15:03:43;9.17;;;5.83;;
17650;SDS011;26663;59.302;18.082;2023-02-15T15:06:57;7.40;;;5.40;;
17650;SDS011;26663;59.302;18.082;2023-02-15T15:10:23;7.97;;;5.40;;
17650;SDS011;26663;59.302;18.082;2023-02-15T15:13:53;9.93;;;5.40;;
17650;SDS011;26663;59.302;18.082;2023-02-15T15:17:00;9.13;;;5.37;;
17650;SDS011;26663;59.302;18.082;2023-02-15T15:20:10;14.23;;;5.93;;
17650;SDS011;26663;59.302;18.082;2023-02-15T15:26:44;11.37;;;5.80;;
17650;SDS011;26663;59.302;18.082;2023-02-15T15:29:53;7.67;;;5.03;;
17650;SDS011;26663;59.302;18.082;2023-02-15T15:33:02;9.57;;;5.67;;
17650;SDS011;26663;59.302;18.082;2023-02-15T15:36:22;9.43;;;5.73;;
17650;SDS011;26663;59.302;18.082;2023-02-15T15:43:49;9.57;;;5.30;;
17650;SDS011;26663;59.302;18.082;2023-02-15T15:47:15;7.00;;;5.77;;
17650;SDS011;26663;59.302;18.082;2023-02-15T15:50:29;7.30;;;5.40;;
17650;SDS011;26663;59.302;18.082;2023-02-15T15:53:38;9.07;;;5.63;;
17650;SDS011;26663;59.302;18.082;2023-02-15T15:56:47;8.43;;;5.20;;
17650;SDS011;26663;59.302;18.082;2023-02-15T15:59:53;6.30;;;5.20;;
17650;SDS011;26663;59.302;18.082;2023-02-15T16:03:01;10.43;;;5.43;;
17650;SDS011;26663;59.302;18.082;2023-02-15T16:06:12;7.93;;;5.33;;
17650;SDS011;26663;59.302;18.082;2023-02-15T16:09:18;7.63;;;5.20;;
17650;SDS011;26663;59.302;18.082;2023-02-15T16:12:26;7.10;;;5.87;;
17650;SDS011;26663;59.302;18.082;2023-02-15T16:15:34;6.60;;;5.77;;
17650;SDS011;26663;59.302;18.082;2023-02-15T16:18:40;7.53;;;5.60;;
17650;SDS011;26663;59.302;18.082;2023-02-15T16:21:47;8.77;;;5.87;;
17650;SDS011;26663;59.302;18.082;2023-02-15T16:24:59;9.00;;;5.53;;
17650;SDS011;26663;59.302;18.082;2023-02-15T16:28:13;9.23;;;6.10;;
17650;SDS011;26663;59.302;18.082;2023-02-15T16:31:21;9.67;;;5.43;;
17650;SDS011;26663;59.302;18.082;2023-02-15T16:34:27;14.23;;;6.00;;
17650;SDS011;26663;59.302;18.082;2023-02-15T16:37:36;8.83;;;5.90;;
17650;SDS011;26663;59.302;18.082;2023-02-15T16:40:43;10.90;;;6.07;;
17650;SDS011;26663;59.302;18.082;2023-02-15T16:43:55;10.57;;;5.90;;
17650;SDS011;26663;59.302;18.082;2023-02-15T16:47:02;13.67;;;5.57;;
17650;SDS011;26663;59.302;18.082;2023-02-15T16:50:16;10.07;;;5.87;;
17650;SDS011;26663;59.302;18.082;2023-02-15T16:53:25;10.53;;;5.30;;
17650;SDS011;26663;59.302;18.082;2023-02-15T16:56:31;12.27;;;5.90;;
17650;SDS011;26663;59.302;18.082;2023-02-15T16:59:38;9.03;;;5.50;;
17650;SDS011;26663;59.302;18.082;2023-02-15T17:02:52;8.73;;;5.63;;
17650;SDS011;26663;59.302;18.082;2023-02-15T17:05:59;9.67;;;5.80;;
17650;SDS011;26663;59.302;18.082;2023-02-15T17:09:13;8.80;;;5.53;;
17650;SDS011;26663;59.302;18.082;2023-02-15T17:16:26;8.23;;;5.10;;
17650;SDS011;26663;59.302;18.082;2023-02-15T17:19:33;7.53;;;6.03;;
17650;SDS011;26663;59.302;18.082;2023-02-15T17:22:47;11.57;;;5.97;;
17650;SDS011;26663;59.302;18.082;2023-02-15T17:25:54;8.13;;;5.97;;
17650;SDS011;26663;59.302;18.082;2023-02-15T17:29:00;7.93;;;5.73;;
17650;SDS011;26663;59.302;18.082;2023-02-15T17:32:15;7.97;;;5.57;;
17650;SDS011;26663;59.302;18.082;2023-02-15T17:35:23;7.50;;;5.43;;
17650;SDS011;26663;59.302;18.082;2023-02-15T17:38:30;6.63;;;5.10;;
17650;SDS011;26663;59.302;18.082;2023-02-15T17:41:36;9.47;;;5.80;;
17650;SDS011;26663;59.302;18.082;2023-02-15T17:44:41;10.00;;;6.30;;
17650;SDS011;26663;59.302;18.082;2023-02-15T17:47:47;10.07;;;6.00;;
17650;SDS011;26663;59.302;18.082;2023-02-15T17:50:53;11.60;;;5.90;;
17650;SDS011;26663;59.302;18.082;2023-02-15T17:53:58;9.60;;;5.60;;
17650;SDS011;26663;59.302;18.082;2023-02-15T17:57:22;12.27;;;5.70;;
17650;SDS011;26663;59.302;18.082;2023-02-15T18:00:28;11.60;;;5.97;;
17650;SDS011;26663;59.302;18.082;2023-02-15T18:03:52;22.70;;;8.30;;
17650;SDS011;26663;59.302;18.082;2023-02-15T18:07:14;29.33;;;11.73;;
17650;SDS011;26663;59.302;18.082;2023-02-15T18:10:38;19.17;;;8.07;;
17650;SDS011;26663;59.302;18.082;2023-02-15T18:14:02;16.17;;;7.83;;
17650;SDS011;26663;59.302;18.082;2023-02-15T18:17:10;19.83;;;8.23;;
17650;SDS011;26663;59.302;18.082;2023-02-15T18:20:17;19.70;;;8.87;;
17650;SDS011;26663;59.302;18.082;2023-02-15T18:23:23;14.77;;;7.60;;
17650;SDS011;26663;59.302;18.082;2023-02-15T18:26:28;18.10;;;8.30;;
17650;SDS011;26663;59.302;18.082;2023-02-15T18:29:35;21.50;;;7.53;;
17650;SDS011;26663;59.302;18.082;2023-02-15T18:32:42;22.83;;;8.40;;
17650;SDS011;26663;59.302;18.082;2023-02-15T18:35:47;19.23;;;8.03;;
17650;SDS011;26663;59.302;18.082;2023-02-15T18:38:52;13.87;;;7.57;;
17650;SDS011;26663;59.302;18.082;2023-02-15T18:41:58;16.37;;;8.77;;
17650;SDS011;26663;59.302;18.082;2023-02-15T18:45:10;12.53;;;7.60;;
17650;SDS011;26663;59.302;18.082;2023-02-15T18:48:32;18.20;;;8.07;;
17650;SDS011;26663;59.302;18.082;2023-02-15T18:51:38;14.80;;;8.43;;
17650;SDS011;26663;59.302;18.082;2023-02-15T18:54:45;13.77;;;7.57;;
17650;SDS011;26663;59.302;18.082;2023-02-15T18:57:51;13.97;;;7.53;;
17650;SDS011;26663;59.302;18.082;2023-02-15T19:01:00;13.93;;;7.37;;